sensor_id;sensor_type;location;lat;lon;timestamp;temperature;humidity
42743;DHT22;28397;44.552;-0.848;2022-08-27T00:00:14;20.10;99.90
42743;DHT22;28397;44.552;-0.848;2022-08-27T00:02:41;19.80;99.90
42743;DHT22;28397;44.552;-0.848;2022-08-27T00:05:08;19.80;99.90
42743;DHT22;28397;44.552;-0.848;2022-08-27T00:07:34;19.80;99.90
42743;DHT22;28397;44.552;-0.848;2022-08-27T00:10:00;19.80;99.90
42743;DHT22;28397;44.552;-0.848;2022-08-27T00:12:26;19.70;99.90
42743;DHT22;28397;44.552;-0.848;2022-08-27T00:14:52;19.60;99.90
42743;DHT22;28397;44.552;-0.848;2022-08-27T00:17:18;19.80;99.90
42743;DHT22;28397;44.552;-0.848;2022-08-27T00:19:44;19.70;99.90
42743;DHT22;28397;44.552;-0.848;2022-08-27T00:22:10;19.80;99.90
42743;DHT22;28397;44.552;-0.848;2022-08-27T00:24:36;19.50;99.90
42743;DHT22;28397;44.552;-0.848;2022-08-27T00:27:03;19.50;99.90
42743;DHT22;28397;44.552;-0.848;2022-08-27T00:29:28;19.50;99.90
42743;DHT22;28397;44.552;-0.848;2022-08-27T00:31:54;19.50;99.90
42743;DHT22;28397;44.552;-0.848;2022-08-27T00:34:21;19.50;99.90
42743;DHT22;28397;44.552;-0.848;2022-08-27T00:36:47;19.50;99.90
42743;DHT22;28397;44.552;-0.848;2022-08-27T00:39:13;19.40;99.90
42743;DHT22;28397;44.552;-0.848;2022-08-27T00:41:39;19.40;99.90
42743;DHT22;28397;44.552;-0.848;2022-08-27T00:44:06;19.50;99.90
42743;DHT22;28397;44.552;-0.848;2022-08-27T00:46:47;19.70;99.90
42743;DHT22;28397;44.552;-0.848;2022-08-27T00:49:22;19.70;99.90
42743;DHT22;28397;44.552;-0.848;2022-08-27T00:52:19;19.80;99.90
42743;DHT22;28397;44.552;-0.848;2022-08-27T00:54:45;19.70;99.90
42743;DHT22;28397;44.552;-0.848;2022-08-27T00:57:12;19.70;99.90
42743;DHT22;28397;44.552;-0.848;2022-08-27T00:59:41;19.60;99.90
42743;DHT22;28397;44.552;-0.848;2022-08-27T01:02:07;19.70;99.90
42743;DHT22;28397;44.552;-0.848;2022-08-27T01:05:01;19.70;99.90
42743;DHT22;28397;44.552;-0.848;2022-08-27T01:07:29;19.60;99.90
42743;DHT22;28397;44.552;-0.848;2022-08-27T01:09:58;19.60;99.90
42743;DHT22;28397;44.552;-0.848;2022-08-27T01:12:25;19.60;99.90
42743;DHT22;28397;44.552;-0.848;2022-08-27T01:14:54;19.70;99.90
42743;DHT22;28397;44.552;-0.848;2022-08-27T01:17:21;20.30;99.90
42743;DHT22;28397;44.552;-0.848;2022-08-27T01:19:58;20.20;99.90
42743;DHT22;28397;44.552;-0.848;2022-08-27T01:22:45;20.20;99.90
42743;DHT22;28397;44.552;-0.848;2022-08-27T01:25:16;20.00;99.90
42743;DHT22;28397;44.552;-0.848;2022-08-27T01:27:43;19.70;99.90
42743;DHT22;28397;44.552;-0.848;2022-08-27T01:30:11;19.70;99.90
42743;DHT22;28397;44.552;-0.848;2022-08-27T01:32:38;19.70;99.90
42743;DHT22;28397;44.552;-0.848;2022-08-27T01:35:07;19.90;99.90
42743;DHT22;28397;44.552;-0.848;2022-08-27T01:37:34;19.70;99.90
42743;DHT22;28397;44.552;-0.848;2022-08-27T01:40:01;19.70;99.90
42743;DHT22;28397;44.552;-0.848;2022-08-27T01:42:37;19.40;99.90
42743;DHT22;28397;44.552;-0.848;2022-08-27T01:45:13;19.60;99.90
42743;DHT22;28397;44.552;-0.848;2022-08-27T01:47:40;19.30;99.90
42743;DHT22;28397;44.552;-0.848;2022-08-27T01:50:12;19.10;99.90
42743;DHT22;28397;44.552;-0.848;2022-08-27T01:52:38;18.90;99.90
42743;DHT22;28397;44.552;-0.848;2022-08-27T01:55:09;18.90;99.90
42743;DHT22;28397;44.552;-0.848;2022-08-27T01:57:36;19.00;99.90
42743;DHT22;28397;44.552;-0.848;2022-08-27T02:00:19;18.80;99.90
42743;DHT22;28397;44.552;-0.848;2022-08-27T02:02:46;19.00;99.90
42743;DHT22;28397;44.552;-0.848;2022-08-27T02:05:12;19.10;99.90
42743;DHT22;28397;44.552;-0.848;2022-08-27T02:07:39;19.00;99.90
42743;DHT22;28397;44.552;-0.848;2022-08-27T02:10:08;19.00;99.90
42743;DHT22;28397;44.552;-0.848;2022-08-27T02:12:34;19.10;99.90
42743;DHT22;28397;44.552;-0.848;2022-08-27T02:15:00;19.10;99.90
42743;DHT22;28397;44.552;-0.848;2022-08-27T02:17:26;19.20;99.90
42743;DHT22;28397;44.552;-0.848;2022-08-27T02:19:53;19.10;99.90
42743;DHT22;28397;44.552;-0.848;2022-08-27T02:22:19;19.00;99.90
42743;DHT22;28397;44.552;-0.848;2022-08-27T02:24:44;18.90;99.90
42743;DHT22;28397;44.552;-0.848;2022-08-27T02:27:10;18.90;99.90
42743;DHT22;28397;44.552;-0.848;2022-08-27T02:29:37;19.00;99.90
42743;DHT22;28397;44.552;-0.848;2022-08-27T02:32:02;19.40;99.90
42743;DHT22;28397;44.552;-0.848;2022-08-27T02:34:28;19.40;99.90
42743;DHT22;28397;44.552;-0.848;2022-08-27T02:36:54;19.60;99.90
42743;DHT22;28397;44.552;-0.848;2022-08-27T02:39:20;19.50;99.90
42743;DHT22;28397;44.552;-0.848;2022-08-27T02:41:46;19.50;99.90
42743;DHT22;28397;44.552;-0.848;2022-08-27T02:44:13;19.60;99.90
42743;DHT22;28397;44.552;-0.848;2022-08-27T02:46:39;19.20;99.90
42743;DHT22;28397;44.552;-0.848;2022-08-27T02:49:05;19.00;99.90
42743;DHT22;28397;44.552;-0.848;2022-08-27T02:51:32;19.00;99.90
42743;DHT22;28397;44.552;-0.848;2022-08-27T02:53:58;19.10;99.90
42743;DHT22;28397;44.552;-0.848;2022-08-27T02:56:24;19.00;99.90
42743;DHT22;28397;44.552;-0.848;2022-08-27T02:58:50;19.10;99.90
42743;DHT22;28397;44.552;-0.848;2022-08-27T03:01:16;19.00;99.90
42743;DHT22;28397;44.552;-0.848;2022-08-27T03:03:41;18.90;99.90
42743;DHT22;28397;44.552;-0.848;2022-08-27T03:06:08;18.90;99.90
42743;DHT22;28397;44.552;-0.848;2022-08-27T03:08:33;18.90;99.90
42743;DHT22;28397;44.552;-0.848;2022-08-27T03:10:59;19.10;99.90
42743;DHT22;28397;44.552;-0.848;2022-08-27T03:13:26;19.20;99.90
42743;DHT22;28397;44.552;-0.848;2022-08-27T03:15:52;19.40;99.90
42743;DHT22;28397;44.552;-0.848;2022-08-27T03:18:19;19.40;99.90
42743;DHT22;28397;44.552;-0.848;2022-08-27T03:20:51;19.50;99.90
42743;DHT22;28397;44.552;-0.848;2022-08-27T03:23:19;19.20;99.90
42743;DHT22;28397;44.552;-0.848;2022-08-27T03:25:49;19.10;99.90
42743;DHT22;28397;44.552;-0.848;2022-08-27T03:28:23;18.90;99.90
42743;DHT22;28397;44.552;-0.848;2022-08-27T03:30:58;18.80;99.90
42743;DHT22;28397;44.552;-0.848;2022-08-27T03:33:29;18.90;99.90
42743;DHT22;28397;44.552;-0.848;2022-08-27T03:35:55;18.80;99.90
42743;DHT22;28397;44.552;-0.848;2022-08-27T03:38:22;18.80;99.90
42743;DHT22;28397;44.552;-0.848;2022-08-27T03:40:48;18.90;99.90
42743;DHT22;28397;44.552;-0.848;2022-08-27T03:43:16;18.80;99.90
42743;DHT22;28397;44.552;-0.848;2022-08-27T03:45:43;18.90;99.90
42743;DHT22;28397;44.552;-0.848;2022-08-27T03:48:10;18.80;99.90
42743;DHT22;28397;44.552;-0.848;2022-08-27T03:50:38;18.80;99.90
42743;DHT22;28397;44.552;-0.848;2022-08-27T03:53:04;19.40;99.90
42743;DHT22;28397;44.552;-0.848;2022-08-27T03:55:30;19.00;99.90
42743;DHT22;28397;44.552;-0.848;2022-08-27T03:57:56;18.90;99.90
42743;DHT22;28397;44.552;-0.848;2022-08-27T04:00:21;18.90;99.90
42743;DHT22;28397;44.552;-0.848;2022-08-27T04:02:49;18.80;99.90
42743;DHT22;28397;44.552;-0.848;2022-08-27T04:05:15;18.90;99.90
42743;DHT22;28397;44.552;-0.848;2022-08-27T04:07:42;18.70;99.90
42743;DHT22;28397;44.552;-0.848;2022-08-27T04:10:10;19.00;99.90
42743;DHT22;28397;44.552;-0.848;2022-08-27T04:12:36;18.70;99.90
42743;DHT22;28397;44.552;-0.848;2022-08-27T04:15:04;18.60;99.90
42743;DHT22;28397;44.552;-0.848;2022-08-27T04:17:29;18.30;99.90
42743;DHT22;28397;44.552;-0.848;2022-08-27T04:19:55;18.10;99.90
42743;DHT22;28397;44.552;-0.848;2022-08-27T04:22:21;17.90;99.90
42743;DHT22;28397;44.552;-0.848;2022-08-27T04:24:48;17.80;99.90
42743;DHT22;28397;44.552;-0.848;2022-08-27T04:27:14;17.70;99.90
42743;DHT22;28397;44.552;-0.848;2022-08-27T04:29:41;17.60;99.90
42743;DHT22;28397;44.552;-0.848;2022-08-27T04:32:07;17.70;99.90
42743;DHT22;28397;44.552;-0.848;2022-08-27T04:34:33;17.80;99.90
42743;DHT22;28397;44.552;-0.848;2022-08-27T04:36:59;18.20;99.90
42743;DHT22;28397;44.552;-0.848;2022-08-27T04:39:26;18.60;99.90
42743;DHT22;28397;44.552;-0.848;2022-08-27T04:41:54;19.00;99.90
42743;DHT22;28397;44.552;-0.848;2022-08-27T04:44:22;18.30;99.90
42743;DHT22;28397;44.552;-0.848;2022-08-27T04:46:48;17.90;99.90
42743;DHT22;28397;44.552;-0.848;2022-08-27T04:49:16;17.70;99.90
42743;DHT22;28397;44.552;-0.848;2022-08-27T04:51:42;17.60;99.90
42743;DHT22;28397;44.552;-0.848;2022-08-27T04:54:08;17.80;99.90
42743;DHT22;28397;44.552;-0.848;2022-08-27T04:56:35;17.90;99.90
42743;DHT22;28397;44.552;-0.848;2022-08-27T04:59:06;17.80;99.90
42743;DHT22;28397;44.552;-0.848;2022-08-27T05:01:35;17.70;99.90
42743;DHT22;28397;44.552;-0.848;2022-08-27T05:04:01;17.60;99.90
42743;DHT22;28397;44.552;-0.848;2022-08-27T05:06:27;17.50;99.90
42743;DHT22;28397;44.552;-0.848;2022-08-27T05:08:53;17.40;99.90
42743;DHT22;28397;44.552;-0.848;2022-08-27T05:11:20;17.50;99.90
42743;DHT22;28397;44.552;-0.848;2022-08-27T05:13:47;17.40;99.90
42743;DHT22;28397;44.552;-0.848;2022-08-27T05:16:17;17.50;99.90
42743;DHT22;28397;44.552;-0.848;2022-08-27T05:18:43;17.40;99.90
42743;DHT22;28397;44.552;-0.848;2022-08-27T05:21:15;17.20;99.90
42743;DHT22;28397;44.552;-0.848;2022-08-27T05:23:41;17.20;99.90
42743;DHT22;28397;44.552;-0.848;2022-08-27T05:26:07;17.30;99.90
42743;DHT22;28397;44.552;-0.848;2022-08-27T05:28:33;17.50;99.90
42743;DHT22;28397;44.552;-0.848;2022-08-27T05:31:07;17.70;99.90
42743;DHT22;28397;44.552;-0.848;2022-08-27T05:33:33;17.50;99.90
42743;DHT22;28397;44.552;-0.848;2022-08-27T05:35:59;17.90;99.90
42743;DHT22;28397;44.552;-0.848;2022-08-27T05:38:27;17.70;99.90
42743;DHT22;28397;44.552;-0.848;2022-08-27T05:41:11;18.00;99.90
42743;DHT22;28397;44.552;-0.848;2022-08-27T05:43:38;17.90;99.90
42743;DHT22;28397;44.552;-0.848;2022-08-27T05:46:08;17.70;99.90
42743;DHT22;28397;44.552;-0.848;2022-08-27T05:48:35;17.70;99.90
42743;DHT22;28397;44.552;-0.848;2022-08-27T05:51:17;17.80;99.90
42743;DHT22;28397;44.552;-0.848;2022-08-27T05:53:43;17.80;99.90
42743;DHT22;28397;44.552;-0.848;2022-08-27T05:56:20;17.90;99.90
42743;DHT22;28397;44.552;-0.848;2022-08-27T05:58:48;18.10;99.90
42743;DHT22;28397;44.552;-0.848;2022-08-27T06:01:36;18.10;99.90
42743;DHT22;28397;44.552;-0.848;2022-08-27T06:04:03;18.30;99.90
42743;DHT22;28397;44.552;-0.848;2022-08-27T06:06:33;18.60;99.90
42743;DHT22;28397;44.552;-0.848;2022-08-27T06:08:59;18.80;99.90
42743;DHT22;28397;44.552;-0.848;2022-08-27T06:11:24;18.90;99.90
42743;DHT22;28397;44.552;-0.848;2022-08-27T06:13:50;20.30;99.90
42743;DHT22;28397;44.552;-0.848;2022-08-27T06:16:17;22.00;99.90
42743;DHT22;28397;44.552;-0.848;2022-08-27T06:18:45;22.80;99.90
42743;DHT22;28397;44.552;-0.848;2022-08-27T06:21:12;23.70;99.90
42743;DHT22;28397;44.552;-0.848;2022-08-27T06:23:39;24.60;99.90
42743;DHT22;28397;44.552;-0.848;2022-08-27T06:26:06;24.50;99.90
42743;DHT22;28397;44.552;-0.848;2022-08-27T06:28:33;25.10;99.90
42743;DHT22;28397;44.552;-0.848;2022-08-27T06:31:09;25.90;99.90
42743;DHT22;28397;44.552;-0.848;2022-08-27T06:33:35;26.90;99.90
42743;DHT22;28397;44.552;-0.848;2022-08-27T06:36:03;26.90;99.90
42743;DHT22;28397;44.552;-0.848;2022-08-27T06:38:30;25.90;99.90
42743;DHT22;28397;44.552;-0.848;2022-08-27T06:40:56;25.40;99.90
42743;DHT22;28397;44.552;-0.848;2022-08-27T06:43:23;24.80;99.90
42743;DHT22;28397;44.552;-0.848;2022-08-27T06:45:50;24.10;99.90
42743;DHT22;28397;44.552;-0.848;2022-08-27T06:48:16;23.40;99.90
42743;DHT22;28397;44.552;-0.848;2022-08-27T06:50:43;23.20;99.90
42743;DHT22;28397;44.552;-0.848;2022-08-27T06:53:09;23.80;99.90
42743;DHT22;28397;44.552;-0.848;2022-08-27T06:55:44;26.20;99.90
42743;DHT22;28397;44.552;-0.848;2022-08-27T06:58:10;26.40;99.90
42743;DHT22;28397;44.552;-0.848;2022-08-27T07:00:36;23.80;99.90
42743;DHT22;28397;44.552;-0.848;2022-08-27T07:03:02;25.20;99.90
42743;DHT22;28397;44.552;-0.848;2022-08-27T07:05:34;25.20;99.90
42743;DHT22;28397;44.552;-0.848;2022-08-27T07:08:00;26.80;99.90
42743;DHT22;28397;44.552;-0.848;2022-08-27T07:10:27;27.40;99.90
42743;DHT22;28397;44.552;-0.848;2022-08-27T07:12:53;27.70;99.90
42743;DHT22;28397;44.552;-0.848;2022-08-27T07:15:18;26.70;99.90
42743;DHT22;28397;44.552;-0.848;2022-08-27T07:17:44;25.00;99.90
42743;DHT22;28397;44.552;-0.848;2022-08-27T07:20:11;25.70;99.90
42743;DHT22;28397;44.552;-0.848;2022-08-27T07:22:43;24.70;99.90
42743;DHT22;28397;44.552;-0.848;2022-08-27T07:25:12;26.50;99.90
42743;DHT22;28397;44.552;-0.848;2022-08-27T07:27:40;26.50;99.90
42743;DHT22;28397;44.552;-0.848;2022-08-27T07:30:09;25.90;99.90
42743;DHT22;28397;44.552;-0.848;2022-08-27T07:32:36;25.10;99.90
42743;DHT22;28397;44.552;-0.848;2022-08-27T07:35:02;25.10;99.90
42743;DHT22;28397;44.552;-0.848;2022-08-27T07:37:28;24.40;99.90
42743;DHT22;28397;44.552;-0.848;2022-08-27T07:39:54;24.80;99.90
42743;DHT22;28397;44.552;-0.848;2022-08-27T07:42:19;24.50;99.90
42743;DHT22;28397;44.552;-0.848;2022-08-27T07:45:04;24.50;99.90
42743;DHT22;28397;44.552;-0.848;2022-08-27T07:47:30;24.70;99.90
42743;DHT22;28397;44.552;-0.848;2022-08-27T07:49:57;24.30;99.90
42743;DHT22;28397;44.552;-0.848;2022-08-27T07:52:23;25.90;99.90
42743;DHT22;28397;44.552;-0.848;2022-08-27T07:54:49;25.00;99.90
42743;DHT22;28397;44.552;-0.848;2022-08-27T07:57:16;24.10;99.90
42743;DHT22;28397;44.552;-0.848;2022-08-27T07:59:42;23.60;99.90
42743;DHT22;28397;44.552;-0.848;2022-08-27T08:02:08;23.90;99.90
42743;DHT22;28397;44.552;-0.848;2022-08-27T08:04:33;24.30;99.90
42743;DHT22;28397;44.552;-0.848;2022-08-27T08:07:00;25.90;99.90
42743;DHT22;28397;44.552;-0.848;2022-08-27T08:09:26;25.60;99.90
42743;DHT22;28397;44.552;-0.848;2022-08-27T08:11:52;25.80;99.90
42743;DHT22;28397;44.552;-0.848;2022-08-27T08:14:19;26.70;99.90
42743;DHT22;28397;44.552;-0.848;2022-08-27T08:16:45;29.30;99.90
42743;DHT22;28397;44.552;-0.848;2022-08-27T08:19:12;29.60;99.90
42743;DHT22;28397;44.552;-0.848;2022-08-27T08:21:37;29.30;99.90
42743;DHT22;28397;44.552;-0.848;2022-08-27T08:24:04;28.50;99.90
42743;DHT22;28397;44.552;-0.848;2022-08-27T08:26:30;30.00;99.90
42743;DHT22;28397;44.552;-0.848;2022-08-27T08:28:56;30.80;98.70
42743;DHT22;28397;44.552;-0.848;2022-08-27T08:31:22;30.00;98.50
42743;DHT22;28397;44.552;-0.848;2022-08-27T08:33:51;31.50;98.30
42743;DHT22;28397;44.552;-0.848;2022-08-27T08:36:18;33.40;96.20
42743;DHT22;28397;44.552;-0.848;2022-08-27T08:38:45;34.20;94.10
42743;DHT22;28397;44.552;-0.848;2022-08-27T08:43:46;33.70;94.40
42743;DHT22;28397;44.552;-0.848;2022-08-27T08:46:40;35.30;92.00
42743;DHT22;28397;44.552;-0.848;2022-08-27T08:49:38;33.10;93.10
42743;DHT22;28397;44.552;-0.848;2022-08-27T08:52:15;32.40;93.10
42743;DHT22;28397;44.552;-0.848;2022-08-27T08:54:42;32.20;93.80
42743;DHT22;28397;44.552;-0.848;2022-08-27T08:57:29;32.40;93.40
42743;DHT22;28397;44.552;-0.848;2022-08-27T09:00:08;31.50;94.00
42743;DHT22;28397;44.552;-0.848;2022-08-27T09:02:37;30.90;94.60
42743;DHT22;28397;44.552;-0.848;2022-08-27T09:05:07;30.10;95.70
42743;DHT22;28397;44.552;-0.848;2022-08-27T09:07:50;30.80;95.90
42743;DHT22;28397;44.552;-0.848;2022-08-27T09:10:33;30.60;94.80
42743;DHT22;28397;44.552;-0.848;2022-08-27T09:13:02;30.40;94.90
42743;DHT22;28397;44.552;-0.848;2022-08-27T09:15:31;30.20;95.40
42743;DHT22;28397;44.552;-0.848;2022-08-27T09:18:11;29.90;96.10
42743;DHT22;28397;44.552;-0.848;2022-08-27T09:20:38;29.60;96.20
42743;DHT22;28397;44.552;-0.848;2022-08-27T09:23:20;29.70;96.10
42743;DHT22;28397;44.552;-0.848;2022-08-27T09:25:47;31.50;94.80
42743;DHT22;28397;44.552;-0.848;2022-08-27T09:28:19;30.60;94.70
42743;DHT22;28397;44.552;-0.848;2022-08-27T09:31:06;32.90;92.60
42743;DHT22;28397;44.552;-0.848;2022-08-27T09:33:32;33.00;92.30
42743;DHT22;28397;44.552;-0.848;2022-08-27T09:36:01;31.60;93.10
42743;DHT22;28397;44.552;-0.848;2022-08-27T09:38:30;33.70;90.60
42743;DHT22;28397;44.552;-0.848;2022-08-27T09:41:01;35.80;91.30
42743;DHT22;28397;44.552;-0.848;2022-08-27T09:43:29;38.20;85.20
42743;DHT22;28397;44.552;-0.848;2022-08-27T09:46:22;34.80;88.10
42743;DHT22;28397;44.552;-0.848;2022-08-27T09:48:49;36.80;86.30
42743;DHT22;28397;44.552;-0.848;2022-08-27T09:51:24;37.40;85.20
42743;DHT22;28397;44.552;-0.848;2022-08-27T09:53:59;40.00;81.70
42743;DHT22;28397;44.552;-0.848;2022-08-27T09:56:45;38.20;82.70
42743;DHT22;28397;44.552;-0.848;2022-08-27T09:59:22;37.30;85.20
42743;DHT22;28397;44.552;-0.848;2022-08-27T10:01:53;36.10;82.30
42743;DHT22;28397;44.552;-0.848;2022-08-27T10:04:45;32.80;87.00
42743;DHT22;28397;44.552;-0.848;2022-08-27T10:11:13;32.80;88.30
42743;DHT22;28397;44.552;-0.848;2022-08-27T10:13:25;33.50;85.90
42743;DHT22;28397;44.552;-0.848;2022-08-27T10:16:05;34.90;84.20
42743;DHT22;28397;44.552;-0.848;2022-08-27T10:21:18;31.90;83.50
42743;DHT22;28397;44.552;-0.848;2022-08-27T10:24:14;32.40;81.20
42743;DHT22;28397;44.552;-0.848;2022-08-27T10:27:05;31.30;87.20
42743;DHT22;28397;44.552;-0.848;2022-08-27T10:29:51;33.10;84.30
42743;DHT22;28397;44.552;-0.848;2022-08-27T10:32:44;31.50;85.00
42743;DHT22;28397;44.552;-0.848;2022-08-27T10:35:25;30.60;85.00
42743;DHT22;28397;44.552;-0.848;2022-08-27T10:41:33;31.10;86.30
42743;DHT22;28397;44.552;-0.848;2022-08-27T10:55:02;33.00;82.30
42743;DHT22;28397;44.552;-0.848;2022-08-27T11:00:21;31.90;84.40
42743;DHT22;28397;44.552;-0.848;2022-08-27T11:05:29;31.60;86.70
42743;DHT22;28397;44.552;-0.848;2022-08-27T11:10:32;30.50;87.70
42743;DHT22;28397;44.552;-0.848;2022-08-27T11:13:05;30.80;85.90
42743;DHT22;28397;44.552;-0.848;2022-08-27T11:15:34;31.30;85.60
42743;DHT22;28397;44.552;-0.848;2022-08-27T11:23:49;31.30;86.00
42743;DHT22;28397;44.552;-0.848;2022-08-27T11:26:18;31.30;86.00
42743;DHT22;28397;44.552;-0.848;2022-08-27T11:28:54;30.10;85.50
42743;DHT22;28397;44.552;-0.848;2022-08-27T11:31:35;29.80;85.20
42743;DHT22;28397;44.552;-0.848;2022-08-27T11:34:30;30.10;85.60
42743;DHT22;28397;44.552;-0.848;2022-08-27T11:45:15;32.20;83.20
42743;DHT22;28397;44.552;-0.848;2022-08-27T11:47:54;31.10;83.60
42743;DHT22;28397;44.552;-0.848;2022-08-27T11:50:22;31.50;82.10
42743;DHT22;28397;44.552;-0.848;2022-08-27T11:53:05;30.30;84.00
42743;DHT22;28397;44.552;-0.848;2022-08-27T12:00:33;30.30;83.90
42743;DHT22;28397;44.552;-0.848;2022-08-27T12:03:22;31.30;82.40
42743;DHT22;28397;44.552;-0.848;2022-08-27T12:11:22;31.10;82.20
42743;DHT22;28397;44.552;-0.848;2022-08-27T12:19:30;30.00;86.40
42743;DHT22;28397;44.552;-0.848;2022-08-27T12:22:27;30.50;84.90
42743;DHT22;28397;44.552;-0.848;2022-08-27T12:24:57;31.60;82.80
42743;DHT22;28397;44.552;-0.848;2022-08-27T12:35:25;30.40;83.80
42743;DHT22;28397;44.552;-0.848;2022-08-27T12:40:59;31.50;82.20
42743;DHT22;28397;44.552;-0.848;2022-08-27T12:43:31;32.90;81.20
42743;DHT22;28397;44.552;-0.848;2022-08-27T12:46:04;33.50;77.60
42743;DHT22;28397;44.552;-0.848;2022-08-27T12:48:47;33.30;78.50
42743;DHT22;28397;44.552;-0.848;2022-08-27T12:51:28;33.20;80.00
42743;DHT22;28397;44.552;-0.848;2022-08-27T13:04:50;31.50;79.90
42743;DHT22;28397;44.552;-0.848;2022-08-27T13:07:29;30.20;81.20
42743;DHT22;28397;44.552;-0.848;2022-08-27T13:10:06;29.40;81.70
42743;DHT22;28397;44.552;-0.848;2022-08-27T13:12:32;29.80;83.40
42743;DHT22;28397;44.552;-0.848;2022-08-27T13:15:06;29.80;82.40
42743;DHT22;28397;44.552;-0.848;2022-08-27T13:17:39;30.30;82.90
42743;DHT22;28397;44.552;-0.848;2022-08-27T13:20:22;30.70;81.80
42743;DHT22;28397;44.552;-0.848;2022-08-27T13:22:50;30.50;81.90
42743;DHT22;28397;44.552;-0.848;2022-08-27T13:25:33;30.60;81.40
42743;DHT22;28397;44.552;-0.848;2022-08-27T13:28:09;31.20;80.30
42743;DHT22;28397;44.552;-0.848;2022-08-27T13:30:42;31.00;80.10
42743;DHT22;28397;44.552;-0.848;2022-08-27T13:33:16;31.00;80.60
42743;DHT22;28397;44.552;-0.848;2022-08-27T13:35:44;31.40;79.30
42743;DHT22;28397;44.552;-0.848;2022-08-27T13:38:14;30.60;80.00
42743;DHT22;28397;44.552;-0.848;2022-08-27T13:41:07;30.50;80.00
42743;DHT22;28397;44.552;-0.848;2022-08-27T13:43:42;31.00;80.20
42743;DHT22;28397;44.552;-0.848;2022-08-27T13:46:15;31.10;79.80
42743;DHT22;28397;44.552;-0.848;2022-08-27T13:48:44;31.50;78.10
42743;DHT22;28397;44.552;-0.848;2022-08-27T13:51:13;30.90;77.90
42743;DHT22;28397;44.552;-0.848;2022-08-27T13:53:47;30.80;78.70
42743;DHT22;28397;44.552;-0.848;2022-08-27T13:56:35;32.00;79.10
42743;DHT22;28397;44.552;-0.848;2022-08-27T14:01:34;32.00;76.40
42743;DHT22;28397;44.552;-0.848;2022-08-27T14:04:03;31.20;78.30
42743;DHT22;28397;44.552;-0.848;2022-08-27T14:06:40;32.20;78.10
42743;DHT22;28397;44.552;-0.848;2022-08-27T14:09:23;32.40;78.70
42743;DHT22;28397;44.552;-0.848;2022-08-27T14:12:00;32.90;77.30
42743;DHT22;28397;44.552;-0.848;2022-08-27T14:14:28;33.10;76.20
42743;DHT22;28397;44.552;-0.848;2022-08-27T14:16:57;32.70;77.90
42743;DHT22;28397;44.552;-0.848;2022-08-27T14:19:26;32.40;77.50
42743;DHT22;28397;44.552;-0.848;2022-08-27T14:21:53;33.10;77.20
42743;DHT22;28397;44.552;-0.848;2022-08-27T14:24:18;33.00;75.90
42743;DHT22;28397;44.552;-0.848;2022-08-27T14:26:49;32.90;76.50
42743;DHT22;28397;44.552;-0.848;2022-08-27T14:29:15;32.50;76.40
42743;DHT22;28397;44.552;-0.848;2022-08-27T14:31:42;33.10;76.80
42743;DHT22;28397;44.552;-0.848;2022-08-27T14:34:08;31.30;76.60
42743;DHT22;28397;44.552;-0.848;2022-08-27T14:36:36;32.10;77.30
42743;DHT22;28397;44.552;-0.848;2022-08-27T14:39:03;32.20;78.00
42743;DHT22;28397;44.552;-0.848;2022-08-27T14:41:29;32.00;77.10
42743;DHT22;28397;44.552;-0.848;2022-08-27T14:43:55;31.90;77.90
42743;DHT22;28397;44.552;-0.848;2022-08-27T14:46:39;32.20;76.60
42743;DHT22;28397;44.552;-0.848;2022-08-27T14:49:13;31.50;76.00
42743;DHT22;28397;44.552;-0.848;2022-08-27T14:51:42;31.90;77.10
42743;DHT22;28397;44.552;-0.848;2022-08-27T14:54:10;32.00;75.70
42743;DHT22;28397;44.552;-0.848;2022-08-27T14:56:36;30.90;77.00
42743;DHT22;28397;44.552;-0.848;2022-08-27T14:59:02;31.60;77.50
42743;DHT22;28397;44.552;-0.848;2022-08-27T15:01:28;31.70;77.80
42743;DHT22;28397;44.552;-0.848;2022-08-27T15:03:55;31.80;76.10
42743;DHT22;28397;44.552;-0.848;2022-08-27T15:06:21;31.70;76.00
42743;DHT22;28397;44.552;-0.848;2022-08-27T15:08:51;31.60;76.90
42743;DHT22;28397;44.552;-0.848;2022-08-27T15:11:29;31.80;75.50
42743;DHT22;28397;44.552;-0.848;2022-08-27T15:13:56;31.10;76.90
42743;DHT22;28397;44.552;-0.848;2022-08-27T15:16:28;30.90;78.00
42743;DHT22;28397;44.552;-0.848;2022-08-27T15:18:54;31.00;77.60
42743;DHT22;28397;44.552;-0.848;2022-08-27T15:21:21;31.00;77.80
42743;DHT22;28397;44.552;-0.848;2022-08-27T15:23:48;30.90;76.80
42743;DHT22;28397;44.552;-0.848;2022-08-27T15:26:14;31.00;77.00
42743;DHT22;28397;44.552;-0.848;2022-08-27T15:28:40;31.10;76.50
42743;DHT22;28397;44.552;-0.848;2022-08-27T15:31:06;30.50;76.40
42743;DHT22;28397;44.552;-0.848;2022-08-27T15:33:31;30.80;76.60
42743;DHT22;28397;44.552;-0.848;2022-08-27T15:35:57;30.80;76.90
42743;DHT22;28397;44.552;-0.848;2022-08-27T15:38:23;30.40;77.70
42743;DHT22;28397;44.552;-0.848;2022-08-27T15:40:49;30.70;76.80
42743;DHT22;28397;44.552;-0.848;2022-08-27T15:43:16;30.80;77.60
42743;DHT22;28397;44.552;-0.848;2022-08-27T15:45:42;31.00;77.70
42743;DHT22;28397;44.552;-0.848;2022-08-27T15:48:08;30.30;77.70
42743;DHT22;28397;44.552;-0.848;2022-08-27T15:50:34;30.30;78.00
42743;DHT22;28397;44.552;-0.848;2022-08-27T15:53:03;30.20;78.40
42743;DHT22;28397;44.552;-0.848;2022-08-27T15:55:33;30.10;78.30
42743;DHT22;28397;44.552;-0.848;2022-08-27T15:57:59;30.10;78.60
42743;DHT22;28397;44.552;-0.848;2022-08-27T16:00:26;30.00;77.90
42743;DHT22;28397;44.552;-0.848;2022-08-27T16:02:52;29.70;78.10
42743;DHT22;28397;44.552;-0.848;2022-08-27T16:05:20;29.70;77.80
42743;DHT22;28397;44.552;-0.848;2022-08-27T16:07:46;29.80;78.30
42743;DHT22;28397;44.552;-0.848;2022-08-27T16:10:14;30.10;77.60
42743;DHT22;28397;44.552;-0.848;2022-08-27T16:12:39;30.50;78.30
42743;DHT22;28397;44.552;-0.848;2022-08-27T16:15:06;30.60;77.70
42743;DHT22;28397;44.552;-0.848;2022-08-27T16:17:33;30.70;78.00
42743;DHT22;28397;44.552;-0.848;2022-08-27T16:19:59;30.60;76.30
42743;DHT22;28397;44.552;-0.848;2022-08-27T16:22:25;30.70;77.60
42743;DHT22;28397;44.552;-0.848;2022-08-27T16:24:50;30.30;76.70
42743;DHT22;28397;44.552;-0.848;2022-08-27T16:27:16;30.20;78.00
42743;DHT22;28397;44.552;-0.848;2022-08-27T16:29:42;30.20;77.30
42743;DHT22;28397;44.552;-0.848;2022-08-27T16:32:14;30.10;77.80
42743;DHT22;28397;44.552;-0.848;2022-08-27T16:34:41;30.10;78.20
42743;DHT22;28397;44.552;-0.848;2022-08-27T16:37:07;30.10;78.20
42743;DHT22;28397;44.552;-0.848;2022-08-27T16:39:34;30.10;78.60
42743;DHT22;28397;44.552;-0.848;2022-08-27T16:41:59;30.10;80.30
42743;DHT22;28397;44.552;-0.848;2022-08-27T16:44:25;29.90;78.60
42743;DHT22;28397;44.552;-0.848;2022-08-27T16:46:51;29.80;79.00
42743;DHT22;28397;44.552;-0.848;2022-08-27T16:49:17;29.80;79.60
42743;DHT22;28397;44.552;-0.848;2022-08-27T16:52:03;29.80;78.90
42743;DHT22;28397;44.552;-0.848;2022-08-27T16:54:29;29.70;79.10
42743;DHT22;28397;44.552;-0.848;2022-08-27T16:56:54;29.70;79.10